createdAt,value
2023-02-11T00:00:41.904Z,17.23
2023-02-11T00:03:10.684Z,11.97
2023-02-11T00:05:38.913Z,16.73
2023-02-11T00:08:08.454Z,13.30
2023-02-11T00:10:36.663Z,13.03
2023-02-11T00:13:04.823Z,9.77
2023-02-11T00:15:32.916Z,11.63
2023-02-11T00:18:00.982Z,10.07
2023-02-11T00:20:29.129Z,7.70
2023-02-11T00:22:57.290Z,12.67
2023-02-11T00:25:26.711Z,13.53
2023-02-11T00:27:54.791Z,14.93
2023-02-11T00:30:22.933Z,9.53
2023-02-11T00:32:51.038Z,11.07
2023-02-11T00:35:19.301Z,16.67
2023-02-11T00:37:47.392Z,9.37
2023-02-11T00:40:16.161Z,8.67
2023-02-11T00:42:45.626Z,9.90
2023-02-11T00:45:14.221Z,13.07
2023-02-11T00:47:42.300Z,13.43
2023-02-11T00:50:10.702Z,10.80
2023-02-11T00:52:38.831Z,12.67
2023-02-11T00:55:07.743Z,11.77
2023-02-11T00:57:35.846Z,12.40
2023-02-11T01:00:06.770Z,11.13
2023-02-11T01:02:34.916Z,12.17
2023-02-11T01:05:03.101Z,10.63
2023-02-11T01:07:31.260Z,10.57
2023-02-11T01:09:59.636Z,9.83
2023-02-11T01:12:27.773Z,10.83
2023-02-11T01:14:55.895Z,10.10
2023-02-11T01:17:25.395Z,15.33
2023-02-11T01:19:53.472Z,13.80
2023-02-11T01:22:21.581Z,7.83
2023-02-11T01:24:49.688Z,15.57
2023-02-11T01:27:17.783Z,9.67
2023-02-11T01:29:45.888Z,13.43
2023-02-11T01:32:14.062Z,12.60
2023-02-11T01:34:43.626Z,11.67
2023-02-11T01:37:11.759Z,12.77
2023-02-11T01:39:39.827Z,9.87
2023-02-11T01:42:07.987Z,8.40
2023-02-11T01:44:39.135Z,13.13
2023-02-11T01:47:07.858Z,8.70
2023-02-11T01:49:39.927Z,11.03
2023-02-11T01:52:13.585Z,16.30
2023-02-11T01:55:02.980Z,20.60
2023-02-11T01:57:34.262Z,10.80
2023-02-11T02:00:11.327Z,10.10
2023-02-11T02:02:45.339Z,9.57
2023-02-11T02:05:25.472Z,9.80
2023-02-11T02:08:01.681Z,8.77
2023-02-11T02:10:32.023Z,13.93
2023-02-11T02:13:00.063Z,10.50
2023-02-11T02:15:31.655Z,15.43
2023-02-11T02:18:03.866Z,8.90
2023-02-11T02:20:58.462Z,13.77
2023-02-11T02:23:44.743Z,13.30
2023-02-11T02:26:49.697Z,13.67
2023-02-11T02:29:54.298Z,8.97
2023-02-11T02:32:35.581Z,12.70
2023-02-11T02:35:12.158Z,14.00
2023-02-11T02:37:47.369Z,11.17
2023-02-11T02:40:19.352Z,13.07
2023-02-11T02:42:49.105Z,8.43
2023-02-11T02:45:17.510Z,11.23
2023-02-11T03:08:30.122Z,12.17
2023-02-11T03:10:59.497Z,12.20
2023-02-11T03:13:33.699Z,13.50
2023-02-11T03:16:08.279Z,14.30
2023-02-11T03:18:40.870Z,11.33
2023-02-11T03:21:10.787Z,12.43
2023-02-11T03:23:43.058Z,19.07
2023-02-11T03:26:22.425Z,12.40
2023-02-11T03:28:55.124Z,11.60
2023-02-11T03:31:30.602Z,14.30
2023-02-11T03:34:03.599Z,9.93
2023-02-11T03:36:41.047Z,14.67
2023-02-11T03:39:12.483Z,12.97
2023-02-11T03:41:42.297Z,12.47
2023-02-11T03:44:14.978Z,9.70
2023-02-11T03:46:48.049Z,12.17
2023-02-11T03:49:20.137Z,9.07
2023-02-11T03:51:49.367Z,17.57
2023-02-11T03:54:24.296Z,12.90
2023-02-11T04:00:34.809Z,12.23
2023-02-11T04:03:02.976Z,12.67
2023-02-11T04:05:31.031Z,11.97
2023-02-11T04:07:59.328Z,12.00
2023-02-11T04:10:28.821Z,14.67
2023-02-11T04:12:56.913Z,12.90
2023-02-11T04:15:25.641Z,11.40
2023-02-11T04:17:53.803Z,14.67
2023-02-11T04:20:22.344Z,10.03
2023-02-11T04:22:50.420Z,14.03
2023-02-11T04:25:18.675Z,10.67
2023-02-11T04:27:48.195Z,13.13
2023-02-11T04:30:16.271Z,12.57
2023-02-11T04:32:44.397Z,11.07
2023-02-11T04:35:12.471Z,14.00
2023-02-11T04:37:40.533Z,10.57
2023-02-11T04:40:09.521Z,16.17
2023-02-11T04:42:37.573Z,14.87
2023-02-11T04:45:08.260Z,16.27
2023-02-11T04:47:37.680Z,15.10
2023-02-11T04:50:06.582Z,14.43
2023-02-11T04:52:34.638Z,16.57
2023-02-11T04:55:02.706Z,19.37
2023-02-11T04:57:30.897Z,14.43
2023-02-11T04:59:58.932Z,14.10
2023-02-11T05:02:28.463Z,17.77
2023-02-11T05:04:56.558Z,16.77
2023-02-11T05:07:24.945Z,14.17
2023-02-11T05:09:53.062Z,12.73
2023-02-11T05:12:21.890Z,16.83
2023-02-11T05:14:49.923Z,17.50
2023-02-11T05:17:18.002Z,13.60
2023-02-11T05:19:47.424Z,16.83
2023-02-11T05:22:15.508Z,16.57
2023-02-11T05:24:43.638Z,14.17
2023-02-11T05:27:11.733Z,17.23
2023-02-11T05:29:40.030Z,12.60
2023-02-11T05:32:09.100Z,15.50
2023-02-11T05:34:37.222Z,16.67
2023-02-11T05:37:06.895Z,16.23
2023-02-11T05:39:35.054Z,19.33
2023-02-11T05:42:03.182Z,17.57
2023-02-11T05:44:31.286Z,17.77
2023-02-11T05:46:59.394Z,18.03
2023-02-11T05:49:27.604Z,15.67
2023-02-11T05:51:55.684Z,16.70
2023-02-11T05:54:25.149Z,21.47
2023-02-11T05:56:53.756Z,12.90
2023-02-11T05:59:21.850Z,16.57
2023-02-11T06:01:49.882Z,19.83
2023-02-11T06:04:17.920Z,16.43
2023-02-11T06:06:45.975Z,18.73
2023-02-11T06:09:14.066Z,14.73
2023-02-11T06:11:43.490Z,15.60
2023-02-11T06:14:12.130Z,17.30
2023-02-11T06:16:40.195Z,19.03
2023-02-11T06:19:08.354Z,22.40
2023-02-11T06:21:43.846Z,16.97
2023-02-11T06:24:12.636Z,14.07
2023-02-11T06:26:40.785Z,16.27
2023-02-11T06:29:10.378Z,15.77
2023-02-11T06:31:39.109Z,17.30
2023-02-11T06:34:07.639Z,17.47
2023-02-11T06:36:36.344Z,17.90
2023-02-11T06:39:05.415Z,26.83
2023-02-11T06:41:33.883Z,17.83
2023-02-11T06:44:02.005Z,20.30
2023-02-11T06:46:31.594Z,19.90
2023-02-11T06:48:59.771Z,20.00
2023-02-11T06:51:28.356Z,17.33
2023-02-11T06:53:56.493Z,17.87
2023-02-11T06:56:27.450Z,15.37
2023-02-11T06:58:56.638Z,22.27
2023-02-11T07:01:26.080Z,18.73
2023-02-11T07:03:55.848Z,15.77
2023-02-11T07:06:27.292Z,19.37
2023-02-11T07:08:56.477Z,17.87
2023-02-11T07:11:26.261Z,13.80
2023-02-11T07:13:55.681Z,20.83
2023-02-11T07:16:24.394Z,16.50
2023-02-11T07:18:52.588Z,24.20
2023-02-11T07:21:24.330Z,19.57
2023-02-11T07:23:53.298Z,18.67
2023-02-11T07:26:23.255Z,22.57
2023-02-11T07:28:52.147Z,21.47
2023-02-11T07:31:22.180Z,22.10
2023-02-11T07:33:52.695Z,20.37
2023-02-11T07:36:23.028Z,25.70
2023-02-11T07:38:51.589Z,19.80
2023-02-11T07:41:22.239Z,17.43
2023-02-11T07:43:50.863Z,22.13
2023-02-11T07:46:21.173Z,22.90
2023-02-11T07:48:49.530Z,20.43
2023-02-11T07:51:19.686Z,25.10
2023-02-11T07:53:49.274Z,18.40
2023-02-11T07:56:18.347Z,20.20
2023-02-11T07:58:46.793Z,24.13
2023-02-11T08:01:16.787Z,22.17
2023-02-11T08:03:45.148Z,23.23
2023-02-11T08:06:15.342Z,21.00
2023-02-11T08:08:44.756Z,24.97
2023-02-11T08:11:16.830Z,23.67
2023-02-11T08:13:45.576Z,23.20
2023-02-11T08:16:20.852Z,23.40
2023-02-11T08:18:49.752Z,28.67
2023-02-11T08:21:18.442Z,26.47
2023-02-11T08:23:47.505Z,25.07
2023-02-11T08:26:19.110Z,23.23
2023-02-11T08:28:48.806Z,25.63
2023-02-11T08:31:20.250Z,26.03
2023-02-11T08:33:48.623Z,25.23
2023-02-11T08:36:18.956Z,29.27
2023-02-11T08:38:48.160Z,28.30
2023-02-11T08:41:18.859Z,35.60
2023-02-11T08:43:47.268Z,32.60
2023-02-11T08:46:17.996Z,33.00
2023-02-11T08:48:47.340Z,39.83
2023-02-11T08:51:18.590Z,38.43
2023-02-11T08:53:46.961Z,40.87
2023-02-11T08:56:17.297Z,37.43
2023-02-11T08:58:45.378Z,37.90
2023-02-11T09:01:15.200Z,43.00
2023-02-11T09:03:43.340Z,43.27
2023-02-11T09:06:12.771Z,38.03
2023-02-11T09:08:46.458Z,31.40
2023-02-11T09:11:15.186Z,37.47
2023-02-11T09:13:46.992Z,35.63
2023-02-11T09:16:20.195Z,37.60
2023-02-11T09:18:48.959Z,34.97
2023-02-11T09:21:19.134Z,37.30
2023-02-11T09:23:48.068Z,41.90
2023-02-11T09:26:19.089Z,38.97
2023-02-11T09:28:49.085Z,40.97
2023-02-11T09:31:18.485Z,35.23
2023-02-11T09:33:48.932Z,38.47
2023-02-11T09:36:18.827Z,38.50
2023-02-11T09:38:47.735Z,32.40
2023-02-11T09:41:34.592Z,36.10
2023-02-11T09:44:07.263Z,39.23
2023-02-11T09:46:39.017Z,39.30
2023-02-11T09:49:08.847Z,36.83
2023-02-11T09:51:43.618Z,32.33
2023-02-11T09:54:18.189Z,37.50
2023-02-11T09:56:46.388Z,33.40
2023-02-11T09:59:18.718Z,35.17
2023-02-11T10:01:50.546Z,35.87
2023-02-11T10:04:32.241Z,34.67
2023-02-11T10:07:08.994Z,30.10
2023-02-11T10:09:51.880Z,36.87
2023-02-11T10:12:31.126Z,36.43
2023-02-11T10:15:16.602Z,29.17
2023-02-11T10:17:54.897Z,30.97
2023-02-11T10:20:32.773Z,34.93
2023-02-11T10:23:03.008Z,28.30
2023-02-11T10:25:38.295Z,29.70
2023-02-11T10:28:14.457Z,27.33
2023-02-11T10:30:47.775Z,25.97
2023-02-11T10:33:25.525Z,31.17
2023-02-11T10:35:53.744Z,28.07
2023-02-11T10:38:21.872Z,28.37
2023-02-11T10:40:50.198Z,28.17
2023-02-11T10:43:20.728Z,26.87
2023-02-11T10:45:51.474Z,25.83
2023-02-11T10:48:39.052Z,25.53
2023-02-11T10:51:17.776Z,25.80
2023-02-11T10:53:46.384Z,27.80
2023-02-11T10:56:23.755Z,24.93
2023-02-11T10:59:01.386Z,21.10
2023-02-11T11:01:43.341Z,25.73
2023-02-11T11:04:35.124Z,20.73
2023-02-11T11:07:14.570Z,24.03
2023-02-11T11:09:51.837Z,22.60
2023-02-11T11:12:34.758Z,23.70
2023-02-11T11:15:16.443Z,19.30
2023-02-11T11:17:46.022Z,21.57
2023-02-11T11:20:22.573Z,20.67
2023-02-11T11:22:53.561Z,23.13
2023-02-11T11:25:27.947Z,21.67
2023-02-11T11:27:58.952Z,20.37
2023-02-11T11:30:32.801Z,19.80
2023-02-11T11:33:03.028Z,19.63
2023-02-11T11:35:33.990Z,21.53
2023-02-11T11:38:05.379Z,19.93
2023-02-11T11:40:35.725Z,22.10
2023-02-11T11:43:08.309Z,21.50
2023-02-11T11:45:36.479Z,19.83
2023-02-11T11:48:15.025Z,21.30
2023-02-11T11:50:45.366Z,18.67
2023-02-11T11:53:17.722Z,19.63
2023-02-11T11:55:49.184Z,20.73
2023-02-11T11:58:19.569Z,19.23
2023-02-11T12:00:57.902Z,18.53
2023-02-11T12:04:04.599Z,19.23
2023-02-11T12:06:45.555Z,17.10
2023-02-11T12:09:24.601Z,17.03
2023-02-11T12:12:20.877Z,15.33
2023-02-11T12:14:57.155Z,16.57
2023-02-11T12:17:45.817Z,20.13
2023-02-11T12:20:23.827Z,15.50
2023-02-11T12:23:04.467Z,17.53
2023-02-11T12:25:40.126Z,19.33
2023-02-11T12:28:26.238Z,14.67
2023-02-11T12:31:19.324Z,15.10
2023-02-11T12:34:14.885Z,15.47
2023-02-11T12:36:57.528Z,15.27
2023-02-11T12:39:36.336Z,14.47
2023-02-11T12:43:02.787Z,17.37
2023-02-11T12:45:48.754Z,15.60
2023-02-11T12:48:35.914Z,14.27
2023-02-11T12:51:13.104Z,14.73
2023-02-11T12:53:50.886Z,16.73
2023-02-11T12:56:25.662Z,18.60
2023-02-11T12:58:57.904Z,21.07
2023-02-11T13:01:30.402Z,14.90
2023-02-11T13:04:08.498Z,22.37
2023-02-11T13:06:41.467Z,14.47
2023-02-11T13:09:18.801Z,18.10
2023-02-11T13:11:52.888Z,15.13
2023-02-11T13:14:27.329Z,14.77
2023-02-11T13:16:58.134Z,17.67
2023-02-11T13:19:32.376Z,13.80
2023-02-11T13:22:09.747Z,14.30
2023-02-11T13:24:45.591Z,12.33
2023-02-11T13:27:30.927Z,11.97
2023-02-11T13:30:14.776Z,15.03
2023-02-11T13:33:28.514Z,14.03
2023-02-11T13:36:26.597Z,12.70
2023-02-11T13:39:08.018Z,14.93
2023-02-11T13:41:41.901Z,12.63
2023-02-11T13:44:26.202Z,15.67
2023-02-11T13:47:01.365Z,14.53
2023-02-11T13:49:35.381Z,14.67
2023-02-11T13:52:05.931Z,14.40
2023-02-11T13:54:36.610Z,12.07
2023-02-11T13:57:26.351Z,17.77
2023-02-11T13:59:56.991Z,13.40
2023-02-11T14:02:46.001Z,12.53
2023-02-11T14:05:49.667Z,16.13
2023-02-11T14:08:44.392Z,12.57
2023-02-11T14:11:44.814Z,12.53
2023-02-11T14:14:21.889Z,13.97
2023-02-11T14:28:34.913Z,14.10
2023-02-11T14:31:10.693Z,12.30
2023-02-11T14:34:01.821Z,13.07
2023-02-11T14:36:51.950Z,13.10
2023-02-11T14:39:29.493Z,14.70
2023-02-11T14:41:58.327Z,15.03
2023-02-11T14:44:31.065Z,15.67
2023-02-11T14:46:59.511Z,12.10
2023-02-11T14:49:30.891Z,16.20
2023-02-11T14:52:07.251Z,14.80
2023-02-11T14:54:35.947Z,12.33
2023-02-11T14:57:09.135Z,15.90
2023-02-11T14:59:38.869Z,14.77
2023-02-11T15:02:23.154Z,14.97
2023-02-11T15:04:51.320Z,14.77
2023-02-11T15:07:19.906Z,17.00
2023-02-11T15:09:51.356Z,16.07
2023-02-11T15:12:25.051Z,14.80
2023-02-11T15:14:56.560Z,17.43
2023-02-11T15:17:29.846Z,16.20
2023-02-11T15:20:01.539Z,15.33
2023-02-11T15:22:33.098Z,16.30
2023-02-11T15:25:03.934Z,15.50
2023-02-11T15:27:40.694Z,14.80
2023-02-11T15:30:26.396Z,18.27
2023-02-11T15:32:58.809Z,17.70
2023-02-11T15:35:29.698Z,13.27
2023-02-11T15:37:59.152Z,11.47
2023-02-11T15:40:32.414Z,15.67
2023-02-11T15:43:02.815Z,19.67
2023-02-11T15:45:34.460Z,17.57
2023-02-11T15:48:10.635Z,17.63
2023-02-11T15:50:40.945Z,18.40
2023-02-11T15:53:24.356Z,15.80
2023-02-11T15:55:55.354Z,19.93
2023-02-11T15:58:24.930Z,17.40
2023-02-11T16:00:59.759Z,17.17
2023-02-11T16:03:33.061Z,17.03
2023-02-11T16:06:16.996Z,20.43
2023-02-11T16:08:58.263Z,21.17
2023-02-11T16:11:30.491Z,18.80
2023-02-11T16:14:00.318Z,18.33
2023-02-11T16:16:33.335Z,17.80
2023-02-11T16:19:05.813Z,18.93
2023-02-11T16:21:39.241Z,21.03
2023-02-11T16:24:09.369Z,20.37
2023-02-11T16:26:43.249Z,21.50
2023-02-11T16:29:14.497Z,18.97
2023-02-11T16:31:46.066Z,16.27
2023-02-11T16:34:16.406Z,19.33
2023-02-11T16:36:44.536Z,20.60
2023-02-11T16:39:13.012Z,19.97
2023-02-11T16:41:41.315Z,24.70
2023-02-11T16:44:09.620Z,21.70
2023-02-11T16:46:38.792Z,30.53
2023-02-11T16:49:12.514Z,24.10
2023-02-11T16:51:42.595Z,24.27
2023-02-11T16:54:16.175Z,21.43
2023-02-11T16:56:44.861Z,23.90
2023-02-11T16:59:13.490Z,28.70
2023-02-11T17:01:43.345Z,24.30
2023-02-11T17:04:18.641Z,26.67
2023-02-11T17:06:48.216Z,26.37
2023-02-11T17:09:20.900Z,25.63
2023-02-11T17:11:49.693Z,24.70
2023-02-11T17:14:18.187Z,23.50
2023-02-11T17:16:47.773Z,22.70
2023-02-11T17:19:22.029Z,22.47
2023-02-11T17:21:54.463Z,28.20
2023-02-11T17:24:23.376Z,26.40
2023-02-11T17:26:51.979Z,20.77
2023-02-11T17:29:22.766Z,27.17
2023-02-11T17:31:51.779Z,23.37
2023-02-11T17:34:22.543Z,26.40
2023-02-11T17:36:50.842Z,21.60
2023-02-11T17:39:19.335Z,23.27
2023-02-11T17:41:47.635Z,28.20
2023-02-11T17:44:16.506Z,25.70
2023-02-11T17:46:45.191Z,26.23
2023-02-11T17:49:13.329Z,26.10
2023-02-11T17:51:42.790Z,26.90
2023-02-11T17:54:14.302Z,25.03
2023-02-11T17:56:43.024Z,28.13
2023-02-11T17:59:12.964Z,26.17
2023-02-11T18:01:42.757Z,25.17
2023-02-11T18:04:14.867Z,27.73
2023-02-11T18:06:44.995Z,24.53
2023-02-11T18:09:13.406Z,25.20
2023-02-11T18:11:42.156Z,24.63
2023-02-11T18:14:11.716Z,23.23
2023-02-11T18:16:43.117Z,23.03
2023-02-11T18:19:11.802Z,24.57
2023-02-11T18:21:39.887Z,25.60
2023-02-11T18:24:09.354Z,27.03
2023-02-11T18:26:37.834Z,29.57
2023-02-11T18:29:07.046Z,24.23
2023-02-11T18:47:00.640Z,25.13
2023-02-11T18:49:28.824Z,31.80
2023-02-11T18:51:58.659Z,25.90
2023-02-11T18:54:26.757Z,23.60
2023-02-11T18:56:54.856Z,24.30
2023-02-11T18:59:22.875Z,25.17
2023-02-11T19:01:51.813Z,24.97
2023-02-11T19:04:21.305Z,24.07
2023-02-11T19:06:50.371Z,22.63
2023-02-11T19:09:20.692Z,23.03
2023-02-11T19:11:49.780Z,24.53
2023-02-11T19:14:20.999Z,22.87
2023-02-11T19:16:51.337Z,25.83
2023-02-11T19:19:22.256Z,23.03
2023-02-11T19:21:50.642Z,26.53
2023-02-11T19:24:20.005Z,24.07
2023-02-11T19:26:49.465Z,24.60
2023-02-11T19:29:17.719Z,21.03
2023-02-11T19:31:46.535Z,22.90
2023-02-11T19:34:17.499Z,24.47
2023-02-11T19:36:47.461Z,22.67
2023-02-11T19:39:15.631Z,18.83
2023-02-11T19:41:44.704Z,23.43
2023-02-11T19:44:15.172Z,20.53
2023-02-11T19:46:43.490Z,20.30
2023-02-11T19:49:15.461Z,21.17
2023-02-11T19:51:43.593Z,18.70
2023-02-11T19:54:13.205Z,20.53
2023-02-11T19:56:41.235Z,22.67
2023-02-11T19:59:09.365Z,21.60
2023-02-11T20:01:37.882Z,22.57
2023-02-11T20:04:06.388Z,21.00
2023-02-11T20:06:36.199Z,18.73
2023-02-11T20:09:07.982Z,18.07
2023-02-11T20:11:38.516Z,21.00
2023-02-11T20:14:07.651Z,18.60
2023-02-11T20:16:47.404Z,19.60
2023-02-11T20:19:18.457Z,17.23
2023-02-11T20:21:48.238Z,15.83
2023-02-11T20:24:16.680Z,19.63
2023-02-11T20:26:48.152Z,17.67
2023-02-11T20:29:17.184Z,19.20
2023-02-11T20:31:45.669Z,17.97
2023-02-11T20:34:13.976Z,19.30
2023-02-11T20:36:42.427Z,17.00
2023-02-11T20:39:17.154Z,18.57
2023-02-11T20:49:28.625Z,21.60
2023-02-11T20:51:58.451Z,19.67
2023-02-11T20:54:27.017Z,20.30
2023-02-11T20:56:56.797Z,17.37
2023-02-11T20:59:25.217Z,17.93
2023-02-11T21:01:55.830Z,19.07
2023-02-11T21:04:26.172Z,22.27
2023-02-11T21:06:58.194Z,25.97
2023-02-11T21:09:28.878Z,23.07
2023-02-11T21:11:57.072Z,23.17
2023-02-11T21:14:26.325Z,24.03
2023-02-11T21:16:54.846Z,18.83
2023-02-11T21:19:23.021Z,21.33
2023-02-11T21:21:51.279Z,18.53
2023-02-11T21:24:20.780Z,22.33
2023-02-11T21:26:48.914Z,18.33
2023-02-11T21:29:17.129Z,19.30
2023-02-11T21:31:45.456Z,19.53
2023-02-11T21:34:14.311Z,17.00
2023-02-11T21:36:42.586Z,19.40
2023-02-11T21:39:10.736Z,18.27
2023-02-11T21:41:40.211Z,20.30
2023-02-11T21:44:08.305Z,21.17
2023-02-11T21:46:36.505Z,18.90
2023-02-11T21:49:04.659Z,20.57
2023-02-11T21:51:32.772Z,25.03
2023-02-11T21:54:02.472Z,22.73
2023-02-11T21:56:31.573Z,18.03
2023-02-11T21:59:03.148Z,18.93
2023-02-11T22:01:32.935Z,16.57
2023-02-11T22:04:01.386Z,18.23
2023-02-11T22:06:31.728Z,22.60
2023-02-11T22:09:02.706Z,18.47
2023-02-11T22:11:30.838Z,18.53
2023-02-11T22:14:00.719Z,16.57
2023-02-11T22:16:29.947Z,17.63
2023-02-11T22:26:30.214Z,18.97
2023-02-11T22:28:58.617Z,19.57
2023-02-11T22:31:30.014Z,18.60
2023-02-11T22:33:58.496Z,19.33
2023-02-11T22:36:28.950Z,23.73
2023-02-11T22:38:57.582Z,20.93
2023-02-11T22:41:25.698Z,19.17
2023-02-11T22:43:53.772Z,15.03
2023-02-11T22:46:22.219Z,17.63
2023-02-11T22:48:52.456Z,19.43
2023-02-11T22:51:23.045Z,18.17
2023-02-11T22:53:52.604Z,16.27
2023-02-11T22:56:21.289Z,17.37
2023-02-11T22:58:49.837Z,19.30
2023-02-11T23:01:18.458Z,17.43
2023-02-11T23:03:46.859Z,17.07
2023-02-11T23:06:16.604Z,19.13
2023-02-11T23:08:45.440Z,22.20
2023-02-11T23:11:15.820Z,15.27
2023-02-11T23:13:45.488Z,16.70
2023-02-11T23:16:16.263Z,21.87
2023-02-11T23:18:45.585Z,18.77
2023-02-11T23:21:17.368Z,18.67
2023-02-11T23:23:46.019Z,19.30
2023-02-11T23:26:15.667Z,20.07
2023-02-11T23:28:45.981Z,17.07
2023-02-11T23:31:16.224Z,18.97
2023-02-11T23:33:44.925Z,18.57
2023-02-11T23:36:13.355Z,14.83
2023-02-11T23:38:43.272Z,17.43
2023-02-11T23:41:12.165Z,18.03
2023-02-11T23:43:40.599Z,19.97
2023-02-11T23:46:09.649Z,19.20
2023-02-11T23:48:38.663Z,19.67
2023-02-11T23:51:07.507Z,17.47
2023-02-11T23:53:35.663Z,17.10
2023-02-11T23:56:08.324Z,20.40
2023-02-11T23:58:36.471Z,19.80
